createdAt,value
2024-01-06T00:00:40.354Z,686.01
2024-01-06T00:01:35.560Z,686.05
2024-01-06T00:02:30.773Z,686.05
2024-01-06T00:03:27.007Z,686.05
2024-01-06T00:04:22.188Z,686.05
2024-01-06T00:05:17.993Z,686.01
2024-01-06T00:06:13.088Z,686.03
2024-01-06T00:07:08.130Z,686.07
2024-01-06T00:08:04.211Z,686.09
2024-01-06T00:08:59.163Z,686.07
2024-01-06T00:09:55.089Z,686.07
2024-01-06T00:10:50.118Z,686.07
2024-01-06T00:11:45.483Z,686.05
2024-01-06T00:12:41.269Z,686.05
2024-01-06T00:13:36.456Z,686.03
2024-01-06T00:14:31.615Z,686.03
2024-01-06T00:15:26.803Z,685.99
2024-01-06T00:16:21.858Z,685.99
2024-01-06T00:17:17.019Z,685.99
2024-01-06T00:18:12.517Z,686.01
2024-01-06T00:19:08.294Z,686.01
2024-01-06T00:20:03.506Z,686.01
2024-01-06T00:20:58.480Z,685.99
2024-01-06T00:21:54.249Z,686.03
2024-01-06T00:22:49.551Z,686.03
2024-01-06T00:23:44.644Z,686.03
2024-01-06T00:24:39.910Z,686.03
2024-01-06T00:25:34.903Z,686.01
2024-01-06T00:26:29.928Z,686.01
2024-01-06T00:27:25.004Z,685.93
2024-01-06T00:28:20.068Z,685.95
2024-01-06T00:29:15.129Z,685.91
2024-01-06T00:30:10.402Z,685.89
2024-01-06T00:31:05.295Z,685.85
2024-01-06T00:32:00.346Z,685.83
2024-01-06T00:32:55.484Z,685.81
2024-01-06T00:33:50.626Z,685.85
2024-01-06T00:34:45.770Z,685.81
2024-01-06T00:35:40.842Z,685.87
2024-01-06T00:36:35.968Z,685.87
2024-01-06T00:37:34.918Z,685.87
2024-01-06T00:38:30.150Z,685.85
2024-01-06T00:39:25.080Z,685.87
2024-01-06T00:40:20.111Z,685.89
2024-01-06T00:41:15.204Z,685.85
2024-01-06T00:42:10.256Z,685.83
2024-01-06T00:43:05.317Z,685.81
2024-01-06T00:44:00.485Z,685.81
2024-01-06T00:44:56.257Z,685.79
2024-01-06T00:45:51.431Z,685.83
2024-01-06T00:46:46.588Z,685.87
2024-01-06T00:47:41.826Z,685.87
2024-01-06T00:48:37.176Z,685.87
2024-01-06T00:49:32.276Z,685.89
2024-01-06T00:50:27.408Z,685.89
2024-01-06T00:51:22.750Z,685.85
2024-01-06T00:52:18.012Z,685.87
2024-01-06T00:53:13.039Z,685.87
2024-01-06T00:54:08.471Z,685.87
2024-01-06T00:55:03.382Z,685.83
2024-01-06T00:55:58.536Z,685.83
2024-01-06T00:56:56.081Z,685.81
2024-01-06T00:57:48.915Z,685.77
2024-01-06T00:58:44.235Z,685.77
2024-01-06T00:59:39.431Z,685.77
2024-01-06T01:00:34.545Z,685.77
2024-01-06T01:01:29.690Z,685.73
2024-01-06T01:02:24.718Z,685.73
2024-01-06T01:03:19.889Z,685.79
2024-01-06T01:04:15.175Z,685.81
2024-01-06T01:05:10.175Z,685.73
2024-01-06T01:06:05.089Z,685.73
2024-01-06T01:07:00.164Z,685.75
2024-01-06T01:07:55.238Z,685.77
2024-01-06T01:08:50.291Z,685.77
2024-01-06T01:09:45.383Z,685.77
2024-01-06T01:10:40.414Z,685.75
2024-01-06T01:11:35.466Z,685.73
2024-01-06T01:12:30.525Z,685.71
2024-01-06T01:13:25.561Z,685.71
2024-01-06T01:14:20.667Z,685.64
2024-01-06T01:15:15.744Z,685.66
2024-01-06T01:16:10.743Z,685.68
2024-01-06T01:17:05.796Z,685.69
2024-01-06T01:18:00.911Z,685.69
2024-01-06T01:18:56.215Z,685.66
2024-01-06T01:19:51.028Z,685.66
2024-01-06T01:20:45.991Z,685.66
2024-01-06T01:21:41.169Z,685.64
2024-01-06T01:22:36.349Z,685.58
2024-01-06T01:23:31.573Z,685.54
2024-01-06T01:24:26.757Z,685.54
2024-01-06T01:25:21.761Z,685.56
2024-01-06T01:26:17.095Z,685.54
2024-01-06T01:27:12.168Z,685.56
2024-01-06T01:28:08.553Z,685.50
2024-01-06T01:29:03.760Z,685.52
2024-01-06T01:29:59.702Z,685.52
2024-01-06T01:30:54.920Z,685.54
2024-01-06T01:31:50.267Z,685.50
2024-01-06T01:32:45.888Z,685.46
2024-01-06T01:33:41.229Z,685.46
2024-01-06T01:34:36.983Z,685.44
2024-01-06T01:35:31.981Z,685.44
2024-01-06T01:36:27.425Z,685.46
2024-01-06T01:37:23.052Z,685.52
2024-01-06T01:38:18.241Z,685.54
2024-01-06T01:39:13.418Z,685.52
2024-01-06T01:40:09.736Z,685.52
2024-01-06T01:41:04.921Z,685.52
2024-01-06T01:42:00.651Z,685.56
2024-01-06T01:42:55.864Z,685.56
2024-01-06T01:43:51.115Z,685.54
2024-01-06T01:44:46.920Z,685.58
2024-01-06T01:45:42.122Z,685.56
2024-01-06T01:46:38.136Z,685.62
2024-01-06T01:47:33.282Z,685.50
2024-01-06T01:48:28.745Z,685.50
2024-01-06T01:49:24.426Z,685.48
2024-01-06T01:50:19.525Z,685.50
2024-01-06T01:51:14.819Z,685.50
2024-01-06T01:52:11.125Z,685.54
2024-01-06T01:53:06.305Z,685.54
2024-01-06T01:54:02.222Z,685.56
2024-01-06T01:54:57.625Z,685.56
2024-01-06T01:55:52.561Z,685.54
2024-01-06T01:56:48.314Z,685.52
2024-01-06T01:57:43.528Z,685.50
2024-01-06T01:58:39.281Z,685.50
2024-01-06T01:59:34.466Z,685.46
2024-01-06T02:00:30.153Z,685.42
2024-01-06T02:01:25.639Z,685.40
2024-01-06T02:02:20.763Z,685.34
2024-01-06T02:03:16.115Z,685.34
2024-01-06T02:04:12.351Z,685.32
2024-01-06T02:05:07.716Z,685.32
2024-01-06T02:06:03.689Z,685.28
2024-01-06T02:06:58.453Z,685.30
2024-01-06T02:07:53.546Z,685.30
2024-01-06T02:08:49.430Z,685.28
2024-01-06T02:09:44.686Z,685.28
2024-01-06T02:10:40.419Z,685.28
2024-01-06T02:11:35.915Z,685.30
2024-01-06T02:12:30.928Z,685.34
2024-01-06T02:13:26.698Z,685.34
2024-01-06T02:14:21.930Z,685.36
2024-01-06T02:15:17.092Z,685.32
2024-01-06T02:16:13.384Z,685.32
2024-01-06T02:17:08.600Z,685.36
2024-01-06T02:18:04.528Z,685.34
2024-01-06T02:18:59.649Z,685.38
2024-01-06T02:19:54.896Z,685.36
2024-01-06T02:20:50.382Z,685.34
2024-01-06T02:21:45.646Z,685.34
2024-01-06T02:22:41.512Z,685.34
2024-01-06T02:23:36.597Z,685.32
2024-01-06T02:24:31.933Z,685.32
2024-01-06T02:25:27.740Z,685.28
2024-01-06T02:26:22.923Z,685.26
2024-01-06T02:27:18.256Z,685.30
2024-01-06T02:28:13.616Z,685.30
2024-01-06T02:29:08.575Z,685.30
2024-01-06T02:30:04.282Z,685.32
2024-01-06T02:30:59.482Z,685.26
2024-01-06T02:31:55.286Z,685.30
2024-01-06T02:32:50.342Z,685.26
2024-01-06T02:33:46.121Z,685.22
2024-01-06T02:34:41.657Z,685.20
2024-01-06T02:35:36.651Z,685.24
2024-01-06T02:36:32.057Z,685.22
2024-01-06T02:37:27.988Z,685.18
2024-01-06T02:38:23.196Z,685.20
2024-01-06T02:39:19.315Z,685.20
2024-01-06T02:40:14.101Z,685.18
2024-01-06T02:41:09.421Z,685.18
2024-01-06T02:42:05.192Z,685.18
2024-01-06T02:43:00.383Z,685.12
2024-01-06T02:43:55.572Z,685.12
2024-01-06T02:44:50.831Z,685.14
2024-01-06T02:45:46.162Z,685.16
2024-01-06T02:46:41.122Z,685.16
2024-01-06T02:47:36.286Z,685.18
2024-01-06T02:48:31.334Z,685.16
2024-01-06T02:49:26.358Z,685.20
2024-01-06T02:50:21.433Z,685.20
2024-01-06T02:51:16.393Z,685.20
2024-01-06T02:52:11.350Z,685.16
2024-01-06T02:53:06.402Z,685.18
2024-01-06T02:54:01.456Z,685.18
2024-01-06T02:54:56.550Z,685.18
2024-01-06T02:55:53.683Z,685.10
2024-01-06T02:56:48.457Z,684.99
2024-01-06T02:57:43.651Z,684.95
2024-01-06T02:58:38.821Z,684.97
2024-01-06T02:59:33.873Z,684.90
2024-01-06T03:00:28.974Z,684.95
2024-01-06T03:01:24.350Z,684.88
2024-01-06T03:02:19.123Z,684.90
2024-01-06T03:03:14.225Z,684.88
2024-01-06T03:04:09.282Z,684.92
2024-01-06T03:05:04.284Z,684.90
2024-01-06T03:05:59.351Z,684.95
2024-01-06T03:06:55.100Z,684.99
2024-01-06T03:07:49.400Z,685.01
2024-01-06T03:08:44.572Z,684.97
2024-01-06T03:09:39.678Z,684.90
2024-01-06T03:10:34.722Z,684.84
2024-01-06T03:11:29.927Z,684.84
2024-01-06T03:12:25.158Z,684.84
2024-01-06T03:13:20.331Z,684.88
2024-01-06T03:14:15.350Z,684.95
2024-01-06T03:15:13.819Z,685.01
2024-01-06T03:16:08.801Z,685.03
2024-01-06T03:17:04.421Z,685.03
2024-01-06T03:17:59.225Z,685.01
2024-01-06T03:18:54.540Z,684.99
2024-01-06T03:19:49.868Z,684.94
2024-01-06T03:20:44.506Z,684.88
2024-01-06T03:21:39.608Z,684.84
2024-01-06T03:22:34.686Z,684.86
2024-01-06T03:23:29.698Z,684.88
2024-01-06T03:24:24.831Z,684.90
2024-01-06T03:25:19.756Z,684.90
2024-01-06T03:26:14.840Z,684.92
2024-01-06T03:27:09.889Z,684.90
2024-01-06T03:28:05.011Z,684.92
2024-01-06T03:29:00.606Z,684.94
2024-01-06T03:29:55.839Z,684.94
2024-01-06T03:30:51.660Z,684.95
2024-01-06T03:31:46.856Z,684.97
2024-01-06T03:32:42.088Z,684.97
2024-01-06T03:33:38.188Z,684.99
2024-01-06T03:34:33.084Z,685.01
2024-01-06T03:35:28.163Z,685.01
2024-01-06T03:36:24.466Z,685.05
2024-01-06T03:37:19.676Z,685.18
2024-01-06T03:38:15.526Z,685.22
2024-01-06T03:39:10.632Z,685.22
2024-01-06T03:40:05.691Z,685.22
2024-01-06T03:41:01.577Z,685.16
2024-01-06T03:41:56.686Z,685.12
2024-01-06T03:42:52.562Z,685.12
2024-01-06T03:43:47.578Z,685.14
2024-01-06T03:44:43.243Z,685.12
2024-01-06T03:45:38.760Z,685.03
2024-01-06T03:46:33.958Z,685.03
2024-01-06T03:47:29.268Z,684.99
2024-01-06T03:48:25.547Z,684.92
2024-01-06T03:49:20.896Z,684.88
2024-01-06T03:50:16.379Z,684.82
2024-01-06T03:51:11.583Z,684.78
2024-01-06T03:52:07.008Z,684.76
2024-01-06T03:53:02.614Z,684.76
2024-01-06T03:53:57.823Z,684.72
2024-01-06T03:54:53.731Z,684.74
2024-01-06T03:55:48.733Z,684.74
2024-01-06T03:56:44.041Z,684.74
2024-01-06T03:57:39.862Z,684.70
2024-01-06T03:58:34.908Z,684.68
2024-01-06T03:59:30.111Z,684.64
2024-01-06T04:00:26.364Z,684.62
2024-01-06T04:01:21.489Z,684.62
2024-01-06T04:02:17.246Z,684.62
2024-01-06T04:03:12.486Z,684.64
2024-01-06T04:04:07.645Z,684.66
2024-01-06T04:05:03.396Z,684.68
2024-01-06T04:05:58.649Z,684.68
2024-01-06T04:06:54.435Z,684.68
2024-01-06T04:07:49.582Z,684.68
2024-01-06T04:08:44.823Z,684.70
2024-01-06T04:09:40.562Z,684.72
2024-01-06T04:10:35.744Z,684.76
2024-01-06T04:11:31.231Z,684.78
2024-01-06T04:12:27.276Z,684.78
2024-01-06T04:13:22.432Z,684.76
2024-01-06T04:14:18.319Z,684.78
2024-01-06T04:15:13.517Z,684.80
2024-01-06T04:16:08.697Z,684.76
2024-01-06T04:17:03.912Z,684.82
2024-01-06T04:18:00.293Z,684.80
2024-01-06T04:18:55.336Z,684.78
2024-01-06T04:19:50.788Z,684.76
2024-01-06T04:20:46.329Z,684.78
2024-01-06T04:21:41.578Z,684.80
2024-01-06T04:22:36.933Z,684.82
2024-01-06T04:23:32.957Z,684.82
2024-01-06T04:24:28.180Z,684.84
2024-01-06T04:25:24.033Z,684.82
2024-01-06T04:26:19.170Z,684.86
2024-01-06T04:27:14.426Z,684.86
2024-01-06T04:28:10.174Z,684.86
2024-01-06T04:29:05.404Z,684.86
2024-01-06T04:30:01.117Z,684.86
2024-01-06T04:30:56.372Z,684.84
2024-01-06T04:31:51.629Z,684.80
2024-01-06T04:32:47.468Z,684.78
2024-01-06T04:33:42.981Z,684.78
2024-01-06T04:34:37.716Z,684.74
2024-01-06T04:35:32.840Z,684.70
2024-01-06T04:36:28.138Z,684.68
2024-01-06T04:37:23.138Z,684.66
2024-01-06T04:38:18.471Z,684.62
2024-01-06T04:39:14.480Z,684.56
2024-01-06T04:40:09.290Z,684.56
2024-01-06T04:41:04.499Z,684.56
2024-01-06T04:42:00.236Z,684.48
2024-01-06T04:42:55.574Z,684.50
2024-01-06T04:43:50.576Z,684.50
2024-01-06T04:44:46.065Z,684.48
2024-01-06T04:45:40.899Z,684.44
2024-01-06T04:46:35.885Z,684.48
2024-01-06T04:47:30.979Z,684.44
2024-01-06T04:48:26.118Z,684.40
2024-01-06T04:49:21.158Z,684.36
2024-01-06T04:50:16.084Z,684.34
2024-01-06T04:51:11.215Z,684.34
2024-01-06T04:52:06.215Z,684.38
2024-01-06T04:53:01.312Z,684.32
2024-01-06T04:53:56.323Z,684.32
2024-01-06T04:54:51.439Z,684.36
2024-01-06T04:55:46.817Z,684.36
2024-01-06T04:56:41.633Z,684.28
2024-01-06T04:57:40.194Z,684.27
2024-01-06T04:58:35.250Z,684.25
2024-01-06T04:59:30.285Z,684.27
2024-01-06T05:00:25.392Z,684.27
2024-01-06T05:01:20.579Z,684.27
2024-01-06T05:02:15.538Z,684.27
2024-01-06T05:03:10.671Z,684.28
2024-01-06T05:04:05.770Z,684.28
2024-01-06T05:05:00.806Z,684.25
2024-01-06T05:05:56.089Z,684.27
2024-01-06T05:06:51.002Z,684.30
2024-01-06T05:07:45.936Z,684.27
2024-01-06T05:08:41.115Z,684.28
2024-01-06T05:09:36.167Z,684.30
2024-01-06T05:10:31.316Z,684.32
2024-01-06T05:11:26.390Z,684.30
2024-01-06T05:12:21.441Z,684.30
2024-01-06T05:13:16.442Z,684.36
2024-01-06T05:14:12.728Z,684.40
2024-01-06T05:15:07.759Z,684.42
2024-01-06T05:16:03.197Z,684.46
2024-01-06T05:16:57.865Z,684.48
2024-01-06T05:17:52.982Z,684.46
2024-01-06T05:18:48.188Z,684.48
2024-01-06T05:19:43.152Z,684.54
2024-01-06T05:20:38.295Z,684.50
2024-01-06T05:21:33.741Z,684.44
2024-01-06T05:22:28.388Z,684.40
2024-01-06T05:23:26.019Z,684.38
2024-01-06T05:24:21.105Z,684.34
2024-01-06T05:25:16.245Z,684.30
2024-01-06T05:26:11.133Z,684.30
2024-01-06T05:27:06.276Z,684.34
2024-01-06T05:28:01.358Z,684.32
2024-01-06T05:28:56.424Z,684.23
2024-01-06T05:29:51.478Z,684.17
2024-01-06T05:30:46.587Z,684.17
2024-01-06T05:31:42.124Z,684.19
2024-01-06T05:32:37.133Z,684.19
2024-01-06T05:33:31.818Z,684.15
2024-01-06T05:34:27.042Z,684.17
2024-01-06T05:35:26.163Z,684.11
2024-01-06T05:36:21.218Z,684.07
2024-01-06T05:37:16.264Z,684.07
2024-01-06T05:38:11.388Z,684.13
2024-01-06T05:39:06.423Z,684.11
2024-01-06T05:40:01.501Z,684.11
2024-01-06T05:40:56.532Z,684.11
2024-01-06T05:41:51.629Z,684.09
2024-01-06T05:42:46.768Z,684.11
2024-01-06T05:43:41.839Z,684.11
2024-01-06T05:44:36.764Z,684.11
2024-01-06T05:45:31.878Z,684.11
2024-01-06T05:46:26.813Z,684.11
2024-01-06T05:47:22.018Z,684.13
2024-01-06T05:48:17.416Z,684.09
2024-01-06T05:49:13.198Z,684.09
2024-01-06T05:50:08.152Z,684.03
2024-01-06T05:51:03.925Z,684.05
2024-01-06T05:51:59.136Z,684.07
2024-01-06T05:52:54.407Z,684.09
2024-01-06T05:53:50.000Z,684.09
2024-01-06T05:54:45.367Z,684.09
2024-01-06T05:55:40.320Z,684.11
2024-01-06T05:56:36.862Z,684.09
2024-01-06T05:57:32.099Z,684.11
2024-01-06T05:58:27.931Z,684.09
2024-01-06T05:59:23.066Z,684.13
2024-01-06T06:00:18.344Z,684.11
2024-01-06T06:01:14.111Z,684.11
2024-01-06T06:02:09.235Z,684.17
2024-01-06T06:03:04.943Z,684.15
2024-01-06T06:04:00.303Z,684.11
2024-01-06T06:04:55.320Z,684.11
2024-01-06T06:05:51.520Z,684.09
2024-01-06T06:06:46.210Z,684.11
2024-01-06T06:07:41.361Z,684.11
2024-01-06T06:08:37.657Z,684.09
2024-01-06T06:09:32.917Z,684.07
2024-01-06T06:10:28.982Z,684.07
2024-01-06T06:11:24.072Z,684.05
2024-01-06T06:12:19.059Z,684.07
2024-01-06T06:13:14.698Z,684.05
2024-01-06T06:14:09.889Z,684.07
2024-01-06T06:15:05.806Z,684.09
2024-01-06T06:16:00.874Z,684.11
2024-01-06T06:16:56.196Z,684.07
2024-01-06T06:17:52.026Z,684.07
2024-01-06T06:18:47.295Z,684.11
2024-01-06T06:19:42.576Z,684.11
2024-01-06T06:20:38.828Z,684.15
2024-01-06T06:21:34.432Z,684.13
2024-01-06T06:22:29.889Z,684.13
2024-01-06T06:23:25.046Z,684.15
2024-01-06T06:24:20.372Z,684.17
2024-01-06T06:25:15.431Z,684.19
2024-01-06T06:26:10.617Z,684.17
2024-01-06T06:27:07.253Z,684.15
2024-01-06T06:28:02.358Z,684.11
2024-01-06T06:28:58.021Z,684.05
2024-01-06T06:29:53.216Z,684.05
2024-01-06T06:30:48.480Z,683.99
2024-01-06T06:31:44.369Z,683.97
2024-01-06T06:32:39.870Z,683.97
2024-01-06T06:33:35.628Z,683.91
2024-01-06T06:34:30.597Z,683.93
2024-01-06T06:35:25.668Z,683.89
2024-01-06T06:36:21.423Z,683.91
2024-01-06T06:37:16.969Z,683.89
2024-01-06T06:38:11.859Z,683.93
2024-01-06T06:39:08.465Z,683.97
2024-01-06T06:40:03.637Z,684.03
2024-01-06T06:40:58.980Z,684.09
2024-01-06T06:41:54.022Z,684.15
2024-01-06T06:42:52.180Z,684.15
2024-01-06T06:43:46.923Z,684.15
2024-01-06T06:44:42.143Z,684.11
2024-01-06T06:45:37.229Z,684.09
2024-01-06T06:46:32.353Z,684.07
2024-01-06T06:47:27.734Z,684.07
2024-01-06T06:48:22.611Z,684.07
2024-01-06T06:49:17.637Z,684.05
2024-01-06T06:50:12.585Z,684.05
2024-01-06T06:51:07.622Z,684.03
2024-01-06T06:52:02.745Z,684.05
2024-01-06T06:52:58.018Z,684.05
2024-01-06T06:53:52.711Z,684.07
2024-01-06T06:54:47.840Z,684.07
2024-01-06T06:55:42.926Z,684.13
2024-01-06T06:56:37.914Z,684.17
2024-01-06T06:57:33.051Z,684.21
2024-01-06T06:58:28.332Z,684.25
2024-01-06T06:59:23.030Z,684.32
2024-01-06T07:00:18.009Z,684.34
2024-01-06T07:01:13.219Z,684.38
2024-01-06T07:02:09.212Z,684.42
2024-01-06T07:03:04.541Z,684.42
2024-01-06T07:04:00.161Z,684.44
2024-01-06T07:04:54.788Z,684.48
2024-01-06T07:05:49.896Z,684.52
2024-01-06T07:06:44.925Z,684.50
2024-01-06T07:07:39.945Z,684.50
2024-01-06T07:08:35.038Z,684.50
2024-01-06T07:09:30.518Z,684.46
2024-01-06T07:10:25.244Z,684.48
2024-01-06T07:11:20.245Z,684.46
2024-01-06T07:12:15.402Z,684.44
2024-01-06T07:13:10.264Z,684.44
2024-01-06T07:14:05.359Z,684.44
2024-01-06T07:15:00.360Z,684.38
2024-01-06T07:16:04.086Z,684.36
2024-01-06T07:16:51.424Z,684.36
2024-01-06T07:17:45.841Z,684.36
2024-01-06T07:18:40.682Z,684.36
2024-01-06T07:19:35.735Z,684.40
2024-01-06T07:20:30.775Z,684.44
2024-01-06T07:21:25.929Z,684.48
2024-01-06T07:22:20.874Z,684.54
2024-01-06T07:23:15.973Z,684.58
2024-01-06T07:24:11.080Z,684.52
2024-01-06T07:25:06.188Z,684.46
2024-01-06T07:26:01.880Z,684.44
2024-01-06T07:26:57.390Z,684.42
2024-01-06T07:27:55.288Z,684.38
2024-01-06T07:28:47.981Z,684.34
2024-01-06T07:29:43.088Z,684.34
2024-01-06T07:30:38.279Z,684.38
2024-01-06T07:31:37.899Z,684.38
2024-01-06T07:32:32.743Z,684.38
2024-01-06T07:33:28.249Z,684.32
2024-01-06T07:34:23.993Z,684.27
2024-01-06T07:35:19.186Z,684.28
2024-01-06T07:36:14.584Z,684.27
2024-01-06T07:37:11.044Z,684.25
2024-01-06T07:38:06.018Z,684.25
2024-01-06T07:39:01.768Z,684.23
2024-01-06T07:39:57.151Z,684.23
2024-01-06T07:40:52.427Z,684.21
2024-01-06T07:41:48.249Z,684.21
2024-01-06T07:42:43.600Z,684.19
2024-01-06T07:43:39.249Z,684.23
2024-01-06T07:44:34.471Z,684.23
2024-01-06T07:45:29.931Z,684.21
2024-01-06T07:46:25.720Z,684.19
2024-01-06T07:47:21.147Z,684.15
2024-01-06T07:48:16.599Z,684.13
2024-01-06T07:49:13.069Z,684.07
2024-01-06T07:50:08.185Z,684.07
2024-01-06T07:51:04.013Z,684.03
2024-01-06T07:51:59.289Z,684.03
2024-01-06T07:52:54.679Z,683.95
2024-01-06T07:53:50.362Z,683.87
2024-01-06T07:54:45.820Z,683.85
2024-01-06T07:55:41.609Z,683.81
2024-01-06T07:56:36.910Z,683.79
2024-01-06T07:57:32.303Z,683.79
2024-01-06T07:58:27.551Z,683.83
2024-01-06T07:59:24.045Z,683.85
2024-01-06T08:00:19.489Z,683.89
2024-01-06T08:01:15.319Z,683.95
2024-01-06T08:02:10.596Z,683.93
2024-01-06T08:03:06.154Z,683.95
2024-01-06T08:04:01.941Z,683.97
2024-01-06T08:04:57.181Z,683.97
2024-01-06T08:05:53.068Z,683.99
2024-01-06T08:06:48.268Z,684.03
2024-01-06T08:07:43.723Z,684.05
2024-01-06T08:08:39.516Z,684.09
2024-01-06T08:09:34.722Z,684.11
2024-01-06T08:10:30.033Z,684.11
2024-01-06T08:11:26.320Z,684.11
2024-01-06T08:12:21.660Z,684.11
2024-01-06T08:13:17.533Z,684.09
2024-01-06T08:14:12.659Z,684.05
2024-01-06T08:15:07.968Z,683.97
2024-01-06T08:16:03.393Z,683.95
2024-01-06T08:16:58.853Z,683.91
2024-01-06T08:17:54.169Z,683.95
2024-01-06T08:18:49.249Z,683.93
2024-01-06T08:19:44.254Z,683.97
2024-01-06T08:20:39.482Z,683.99
2024-01-06T08:21:34.584Z,683.99
2024-01-06T08:22:29.535Z,684.03
2024-01-06T08:23:24.745Z,684.05
2024-01-06T08:24:19.724Z,683.97
2024-01-06T08:25:14.799Z,683.99
2024-01-06T08:26:13.377Z,683.99
2024-01-06T08:27:04.920Z,683.99
2024-01-06T08:28:00.197Z,684.03
2024-01-06T08:28:55.320Z,684.05
2024-01-06T08:29:50.269Z,684.07
2024-01-06T08:30:45.379Z,684.03
2024-01-06T08:31:40.582Z,683.93
2024-01-06T08:32:35.593Z,683.93
2024-01-06T08:33:30.703Z,683.89
2024-01-06T08:34:26.816Z,683.89
2024-01-06T08:35:23.007Z,683.87
2024-01-06T08:36:18.082Z,683.85
2024-01-06T08:37:13.092Z,683.81
2024-01-06T08:38:08.055Z,683.79
2024-01-06T08:39:03.299Z,683.79
2024-01-06T08:39:58.241Z,683.81
2024-01-06T08:40:53.149Z,683.81
2024-01-06T08:41:48.136Z,683.77
2024-01-06T08:42:43.289Z,683.77
2024-01-06T08:43:38.441Z,683.81
2024-01-06T08:44:33.490Z,683.87
2024-01-06T08:45:28.743Z,683.87
2024-01-06T08:46:24.681Z,683.91
2024-01-06T08:47:19.942Z,683.99
2024-01-06T08:48:15.354Z,684.01
2024-01-06T08:49:11.289Z,683.99
2024-01-06T08:50:06.549Z,683.91
2024-01-06T08:51:02.458Z,683.85
2024-01-06T08:51:57.711Z,683.79
2024-01-06T08:52:53.031Z,683.79
2024-01-06T08:53:48.774Z,683.77
2024-01-06T08:54:44.150Z,683.79
2024-01-06T08:55:39.588Z,683.83
2024-01-06T08:56:35.739Z,683.81
2024-01-06T08:57:31.228Z,683.87
2024-01-06T08:58:27.065Z,683.87
2024-01-06T08:59:22.532Z,683.89
2024-01-06T09:00:17.984Z,683.93
2024-01-06T09:01:13.689Z,683.97
2024-01-06T09:02:09.030Z,683.99
2024-01-06T09:03:04.827Z,683.97
2024-01-06T09:04:00.349Z,683.99
2024-01-06T09:04:55.760Z,683.99
2024-01-06T09:05:51.421Z,683.99
2024-01-06T09:06:46.782Z,684.03
2024-01-06T09:07:42.090Z,684.03
2024-01-06T09:08:38.389Z,684.03
2024-01-06T09:09:33.973Z,684.07
2024-01-06T09:10:29.548Z,684.11
2024-01-06T09:11:24.983Z,684.13
2024-01-06T09:12:20.329Z,684.15
2024-01-06T09:13:16.063Z,684.09
2024-01-06T09:14:11.405Z,684.05
2024-01-06T09:15:07.160Z,683.97
2024-01-06T09:16:03.330Z,683.99
2024-01-06T09:16:57.979Z,683.99
2024-01-06T09:17:53.689Z,684.03
2024-01-06T09:18:49.123Z,683.99
2024-01-06T09:19:44.572Z,683.99
2024-01-06T09:20:41.146Z,683.99
2024-01-06T09:21:36.474Z,683.99
2024-01-06T09:22:32.220Z,684.01
2024-01-06T09:23:27.529Z,684.05
2024-01-06T09:24:22.900Z,684.03
2024-01-06T09:25:18.622Z,684.01
2024-01-06T09:26:14.057Z,683.97
2024-01-06T09:27:09.746Z,683.97
2024-01-06T09:28:05.204Z,683.99
2024-01-06T09:29:00.719Z,684.03
2024-01-06T09:29:56.320Z,684.03
2024-01-06T09:30:51.723Z,684.09
2024-01-06T09:31:47.186Z,684.13
2024-01-06T09:32:43.423Z,684.19
2024-01-06T09:33:38.783Z,684.19
2024-01-06T09:34:36.948Z,684.21
2024-01-06T09:35:29.545Z,684.21
2024-01-06T09:36:25.703Z,684.19
2024-01-06T09:37:21.022Z,684.13
2024-01-06T09:38:16.864Z,684.05
2024-01-06T09:39:12.397Z,684.03
2024-01-06T09:40:07.704Z,684.07
2024-01-06T09:41:03.411Z,684.13
2024-01-06T09:41:58.808Z,684.15
2024-01-06T09:42:54.159Z,684.17
2024-01-06T09:43:50.447Z,684.21
2024-01-06T09:44:45.937Z,684.17
2024-01-06T09:45:41.683Z,684.07
2024-01-06T09:46:37.016Z,684.05
2024-01-06T09:47:32.380Z,684.07
2024-01-06T09:48:28.261Z,684.11
2024-01-06T09:49:23.735Z,684.07
2024-01-06T09:50:19.492Z,684.07
2024-01-06T09:51:14.754Z,684.05
2024-01-06T09:52:10.043Z,684.07
2024-01-06T09:53:05.388Z,684.15
2024-01-06T09:54:01.015Z,684.19
2024-01-06T09:54:57.015Z,684.27
2024-01-06T09:55:51.310Z,684.30
2024-01-06T09:56:46.383Z,684.34
2024-01-06T09:57:46.384Z,684.25
2024-01-06T09:58:41.559Z,684.21
2024-01-06T09:59:37.200Z,684.13
2024-01-06T10:00:32.453Z,684.09
2024-01-06T10:01:29.243Z,684.05
2024-01-06T10:02:24.447Z,684.05
2024-01-06T10:03:19.899Z,684.03
2024-01-06T10:04:18.816Z,684.03
2024-01-06T10:05:11.393Z,684.07
2024-01-06T10:06:05.336Z,684.13
2024-01-06T10:07:00.467Z,684.21
2024-01-06T10:07:55.466Z,684.25
2024-01-06T10:08:50.540Z,684.23
2024-01-06T10:09:45.666Z,684.23
2024-01-06T10:10:40.746Z,684.19
2024-01-06T10:11:35.720Z,684.19
2024-01-06T10:12:33.071Z,684.21
2024-01-06T10:13:25.811Z,684.19
2024-01-06T10:14:20.872Z,684.17
2024-01-06T10:15:15.954Z,684.23
2024-01-06T10:16:11.084Z,684.21
2024-01-06T10:17:06.056Z,684.19
2024-01-06T10:18:01.137Z,684.21
2024-01-06T10:18:56.222Z,684.23
2024-01-06T10:19:51.371Z,684.19
2024-01-06T10:20:46.278Z,684.17
2024-01-06T10:21:41.896Z,684.15
2024-01-06T10:22:37.062Z,684.05
2024-01-06T10:23:32.499Z,684.13
2024-01-06T10:24:27.833Z,684.15
2024-01-06T10:25:23.463Z,684.21
2024-01-06T10:26:18.607Z,684.17
2024-01-06T10:27:14.164Z,684.15
2024-01-06T10:28:09.454Z,684.17
2024-01-06T10:29:04.512Z,684.17
2024-01-06T10:29:59.568Z,684.19
2024-01-06T10:30:54.822Z,684.19
2024-01-06T10:31:53.739Z,684.21
2024-01-06T10:32:46.139Z,684.17
2024-01-06T10:33:40.200Z,684.19
2024-01-06T10:34:35.224Z,684.27
2024-01-06T10:35:31.116Z,684.28
2024-01-06T10:36:26.310Z,684.36
2024-01-06T10:37:21.621Z,684.34
2024-01-06T10:38:17.363Z,684.32
2024-01-06T10:39:12.795Z,684.34
2024-01-06T10:40:08.568Z,684.30
2024-01-06T10:41:03.906Z,684.38
2024-01-06T10:41:59.248Z,684.34
2024-01-06T10:42:55.050Z,684.36
2024-01-06T10:43:50.443Z,684.38
2024-01-06T10:44:47.425Z,684.40
2024-01-06T10:45:42.100Z,684.34
2024-01-06T10:46:37.402Z,684.34
2024-01-06T10:47:33.157Z,684.34
2024-01-06T10:48:28.556Z,684.34
2024-01-06T10:49:23.988Z,684.32
2024-01-06T10:50:19.733Z,684.34
2024-01-06T10:51:15.589Z,684.36
2024-01-06T10:52:11.128Z,684.42
2024-01-06T10:53:06.387Z,684.38
2024-01-06T10:54:01.698Z,684.34
2024-01-06T10:54:57.516Z,684.32
2024-01-06T10:55:56.276Z,684.36
2024-01-06T10:56:48.414Z,684.38
2024-01-06T10:57:43.633Z,684.44
2024-01-06T10:58:39.381Z,684.52
2024-01-06T10:59:34.710Z,684.52
2024-01-06T11:00:30.264Z,684.48
2024-01-06T11:01:29.191Z,684.52
2024-01-06T11:02:21.823Z,684.44
2024-01-06T11:03:17.630Z,684.42
2024-01-06T11:04:13.169Z,684.36
2024-01-06T11:05:08.429Z,684.34
2024-01-06T11:06:04.213Z,684.34
2024-01-06T11:06:59.768Z,684.36
2024-01-06T11:07:55.349Z,684.36
2024-01-06T11:08:50.670Z,684.36
2024-01-06T11:09:46.179Z,684.36
2024-01-06T11:10:41.887Z,684.36
2024-01-06T11:11:37.400Z,684.38
2024-01-06T11:12:32.887Z,684.40
2024-01-06T11:13:28.989Z,684.36
2024-01-06T11:14:24.284Z,684.36
2024-01-06T11:15:20.047Z,684.36
2024-01-06T11:16:15.366Z,684.38
2024-01-06T11:17:10.874Z,684.38
2024-01-06T11:18:06.693Z,684.40
2024-01-06T11:19:02.300Z,684.42
2024-01-06T11:19:57.956Z,684.42
2024-01-06T11:20:53.194Z,684.46
2024-01-06T11:21:48.857Z,684.48
2024-01-06T11:22:44.504Z,684.50
2024-01-06T11:23:40.079Z,684.50
2024-01-06T11:24:35.306Z,684.54
2024-01-06T11:25:31.827Z,684.54
2024-01-06T11:26:27.296Z,684.54
2024-01-06T11:27:23.380Z,684.52
2024-01-06T11:28:18.576Z,684.50
2024-01-06T11:29:14.007Z,684.52
2024-01-06T11:30:09.716Z,684.50
2024-01-06T11:31:05.181Z,684.48